Time;durP1;ratioP1;P1;durP2;ratioP2;P2;SDS_P1;SDS_P2;PMS_P1;PMS_P2;Temp;Humidity;BMP_temperature;BMP_pressure;BME280_temperature;BME280_humidity;BME280_pressure;Samples;Min_cycle;Max_cycle;Signal;HPM_P1;HPM_P2
2021/10/03 00:01:23;;;;;;;;;;;;;;;15.90;97.24;99509.59;5033948;28;20458;-35
2021/10/03 00:03:50;;;;;;;1.23;0.70;;;;;;;15.92;97.35;99520.22;5033332;28;19916;-35
2021/10/03 00:06:17;;;;;;;1.98;0.73;;;;;;;15.82;97.31;99504.03;5033114;28;20029;-35
2021/10/03 00:08:44;;;;;;;1.05;0.63;;;;;;;15.91;97.52;99513.97;5032709;28;20040;-35
2021/10/03 00:11:10;;;;;;;1.45;0.68;;;;;;;15.83;97.04;99492.03;5033427;28;20028;-35
2021/10/03 00:13:36;;;;;;;1.13;0.73;;;;;;;15.89;96.95;99505.25;5033177;28;20360;-35
2021/10/03 00:16:03;;;;;;;1.60;0.50;;;;;;;15.92;97.39;99501.13;5033003;28;20113;-35
2021/10/03 00:18:28;;;;;;;1.00;0.60;;;;;;;15.93;97.38;99505.47;5033587;28;20036;-35
2021/10/03 00:20:54;;;;;;;1.02;0.68;;;;;;;15.89;97.63;99504.44;5033103;28;20365;-35
2021/10/03 00:23:21;;;;;;;1.10;0.60;;;;;;;15.93;97.72;99519.91;5031306;28;20446;-36
2021/10/03 00:25:48;;;;;;;1.67;0.70;;;;;;;15.88;97.87;99508.28;5032851;28;20577;-35
2021/10/03 00:28:14;;;;;;;1.40;0.70;;;;;;;15.89;98.46;99510.72;5033037;28;20040;-35
2021/10/03 00:30:41;;;;;;;1.67;0.63;;;;;;;15.90;99.19;99517.78;5032960;28;20117;-35
2021/10/03 00:33:07;;;;;;;0.77;0.60;;;;;;;15.87;99.02;99515.66;5033131;28;20100;-35
2021/10/03 00:35:34;;;;;;;0.88;0.55;;;;;;;15.86;99.03;99511.31;5032872;28;20025;-35
2021/10/03 00:38:01;;;;;;;0.82;0.60;;;;;;;15.85;99.20;99525.22;5033133;28;20031;-36
2021/10/03 00:40:29;;;;;;;1.63;0.60;;;;;;;15.77;99.70;99498.69;5032808;28;20022;-35
2021/10/03 00:42:55;;;;;;;1.83;0.68;;;;;;;15.83;99.25;99508.38;5033271;28;20059;-35
2021/10/03 00:45:21;;;;;;;1.20;0.47;;;;;;;15.87;99.43;99512.13;5032692;28;20025;-35
2021/10/03 00:47:46;;;;;;;0.90;0.47;;;;;;;15.81;98.79;99499.69;5032882;28;20032;-35
2021/10/03 00:50:15;;;;;;;1.25;0.52;;;;;;;15.88;99.40;99511.81;5032745;28;20025;-35
2021/10/03 00:52:44;;;;;;;1.65;0.60;;;;;;;15.88;99.20;99514.56;5032575;28;20025;-35
2021/10/03 00:55:10;;;;;;;0.85;0.50;;;;;;;15.81;99.16;99494.22;5032656;28;20029;-35
2021/10/03 00:57:37;;;;;;;1.45;0.65;;;;;;;15.87;99.33;99509.41;5033520;28;20028;-35
2021/10/03 01:00:05;;;;;;;0.55;0.50;;;;;;;15.88;99.85;99508.28;5032698;28;20022;-35
2021/10/03 01:02:30;;;;;;;0.70;0.55;;;;;;;15.85;99.81;99506.97;5033222;28;20108;-35
2021/10/03 01:04:56;;;;;;;1.10;0.60;;;;;;;15.85;100.00;99501.50;5033934;28;20024;-35
2021/10/03 01:07:21;;;;;;;1.05;0.40;;;;;;;15.87;100.00;99501.22;5036849;28;20056;-35
2021/10/03 01:09:46;;;;;;;;;;;;;;;15.88;100.00;99505.56;5036724;28;20043;-35
2021/10/03 01:12:12;;;;;;;1.95;0.60;;;;;;;15.82;100.00;99499.41;5036896;28;19952;-35
2021/10/03 01:14:37;;;;;;;;;;;;;;;15.84;100.00;99510.00;5036641;28;20025;-35
2021/10/03 01:17:03;;;;;;;1.05;0.47;;;;;;;15.80;100.00;99498.06;5051690;28;19912;-35
2021/10/03 01:19:28;;;;;;;;;;;;;;;15.80;100.00;99493.41;5036814;28;20021;-35
2021/10/03 01:21:54;;;;;;;0.65;0.50;;;;;;;15.78;100.00;99500.28;5036417;28;19912;-35
2021/10/03 01:24:20;;;;;;;0.70;0.60;;;;;;;15.77;100.00;99494.03;5036256;28;20434;-35
2021/10/03 01:26:45;;;;;;;0.70;0.43;;;;;;;15.78;100.00;99487.47;5036208;28;20053;-35
2021/10/03 01:29:11;;;;;;;0.95;0.52;;;;;;;15.73;100.00;99486.75;5036015;28;20021;-36
2021/10/03 01:31:36;;;;;;;2.65;0.60;;;;;;;15.80;100.00;99487.16;5036045;28;20033;-36
2021/10/03 01:34:02;;;;;;;1.85;0.60;;;;;;;15.74;100.00;99482.91;5035914;28;20041;-36
2021/10/03 01:36:27;;;;;;;;;;;;;;;15.83;100.00;99489.31;5036737;28;20033;-35
2021/10/03 01:38:53;;;;;;;0.73;0.40;;;;;;;15.80;100.00;99485.25;5035808;28;20007;-36
2021/10/03 01:41:18;;;;;;;1.27;0.47;;;;;;;15.81;100.00;99483.31;5036032;28;20018;-35
2021/10/03 01:43:44;;;;;;;;;;;;;;;15.82;100.00;99479.50;5034841;28;20124;-35
2021/10/03 01:46:11;;;;;;;0.50;0.43;;;;;;;15.80;100.00;99476.25;5035838;28;19932;-36
2021/10/03 01:48:37;;;;;;;0.65;0.47;;;;;;;15.79;100.00;99474.66;5035506;28;20017;-35
2021/10/03 01:51:09;;;;;;;1.88;0.45;;;;;;;15.80;100.00;99478.97;5035261;28;20029;-35
2021/10/03 01:53:38;;;;;;;0.65;0.40;;;;;;;15.81;100.00;99477.88;5035667;28;20025;-35
2021/10/03 01:56:06;;;;;;;0.80;0.60;;;;;;;15.79;100.00;99472.72;5035654;28;20126;-35
2021/10/03 01:58:53;;;;;;;3.28;0.60;;;;;;;15.81;100.00;99458.78;5035422;28;20075;-35
2021/10/03 02:01:26;;;;;;;0.90;0.50;;;;;;;15.74;100.00;99450.22;5034952;28;20030;-36
2021/10/03 02:03:51;;;;;;;1.23;0.50;;;;;;;15.83;100.00;99464.78;5035328;28;20155;-36
2021/10/03 02:06:18;;;;;;;3.08;0.63;;;;;;;15.84;100.00;99460.94;5035700;28;20025;-35
2021/10/03 02:08:43;;;;;;;1.55;0.60;;;;;;;15.83;100.00;99459.31;5034939;28;20018;-36
2021/10/03 02:11:09;;;;;;;0.82;0.55;;;;;;;15.83;100.00;99456.59;5035269;28;20036;-35
2021/10/03 02:13:35;;;;;;;2.78;0.80;;;;;;;15.83;100.00;99460.13;5035087;28;20141;-35
2021/10/03 02:16:03;;;;;;;;;;;;;;;15.85;100.00;99463.34;5035381;28;20454;-35
2021/10/03 02:18:35;;;;;;;1.10;0.60;;;;;;;15.81;100.00;99458.78;5034280;28;20003;-35
2021/10/03 02:21:01;;;;;;;2.03;0.60;;;;;;;15.81;100.00;99447.88;5034955;28;20057;-35
2021/10/03 02:23:27;;;;;;;0.80;0.50;;;;;;;15.73;100.00;99434.97;5034418;28;20091;-36
2021/10/03 02:25:52;;;;;;;0.90;0.63;;;;;;;15.69;100.00;99426.56;5034899;28;20025;-35
2021/10/03 02:28:20;;;;;;;1.38;0.50;;;;;;;15.77;100.00;99444.97;5034893;28;20252;-35
2021/10/03 02:30:47;;;;;;;1.05;0.70;;;;;;;15.76;100.00;99428.91;5034389;28;20083;-37
2021/10/03 02:33:13;;;;;;;1.77;0.80;;;;;;;15.75;100.00;99430.00;5034582;28;20028;-36
2021/10/03 02:35:38;;;;;;;1.33;0.55;;;;;;;15.68;100.00;99412.16;5034505;28;20416;-35
2021/10/03 02:38:08;;;;;;;;;;;;;;;15.77;100.00;99412.28;5035060;28;20025;-35
2021/10/03 02:40:34;;;;;;;0.77;0.50;;;;;;;15.76;100.00;99418.81;5035197;28;19913;-35
2021/10/03 02:43:00;;;;;;;0.93;0.50;;;;;;;15.73;100.00;99389.44;5034922;28;20087;-35
2021/10/03 02:45:27;;;;;;;2.53;0.60;;;;;;;15.75;100.00;99395.38;5034237;28;20060;-35
2021/10/03 02:47:53;;;;;;;1.02;0.52;;;;;;;15.76;100.00;99393.47;5034658;28;20310;-35
2021/10/03 02:50:18;;;;;;;1.15;0.70;;;;;;;15.67;100.00;99390.66;5034473;28;20120;-35
2021/10/03 02:52:44;;;;;;;2.05;0.80;;;;;;;15.78;100.00;99396.72;5035026;28;20104;-36
2021/10/03 02:55:10;;;;;;;0.80;0.68;;;;;;;15.77;100.00;99387.75;5034175;28;20025;-35
2021/10/03 02:57:35;;;;;;;1.77;0.60;;;;;;;15.79;100.00;99388.22;5035421;28;20513;-35
2021/10/03 03:00:03;;;;;;;1.95;0.80;;;;;;;15.73;100.00;99378.53;5034332;28;20096;-35
2021/10/03 03:02:28;;;;;;;1.20;0.82;;;;;;;15.72;100.00;99373.41;5034286;28;20473;-36
2021/10/03 03:04:53;;;;;;;4.23;1.30;;;;;;;15.82;100.00;99405.91;5034434;28;20078;-35
2021/10/03 03:07:19;;;;;;;;;;;;;;;15.85;100.00;99399.84;5034586;28;20041;-35
2021/10/03 03:09:44;;;;;;;1.73;0.90;;;;;;;15.81;100.00;99374.28;5034163;28;20066;-35
2021/10/03 03:12:10;;;;;;;2.10;1.10;;;;;;;15.79;100.00;99392.88;5034292;28;20029;-35
2021/10/03 03:14:35;;;;;;;1.33;1.02;;;;;;;15.89;100.00;99431.66;5033756;28;20033;-35
2021/10/03 03:17:13;;;;;;;1.88;0.98;;;;;;;15.82;100.00;99442.16;5034515;28;20482;-35
2021/10/03 03:19:38;;;;;;;1.13;0.80;;;;;;;15.86;100.00;99445.06;5033953;28;20114;-35
2021/10/03 03:22:04;;;;;;;2.43;0.70;;;;;;;15.77;100.00;99412.28;5033931;28;20460;-35
2021/10/03 03:24:29;;;;;;;;;;;;;;;15.81;100.00;99475.16;5050033;28;20053;-35
2021/10/03 03:26:54;;;;;;;2.37;0.50;;;;;;;15.54;100.00;99478.56;5033785;28;19915;-35
2021/10/03 03:29:20;;;;;;;0.60;0.40;;;;;;;15.32;99.29;99389.28;5033519;28;20355;-35
2021/10/03 03:31:45;;;;;;;1.83;0.68;;;;;;;15.23;100.00;99500.03;5033756;28;20333;-35
2021/10/03 03:34:10;;;;;;;3.30;0.70;;;;;;;15.17;100.00;99501.97;5032393;28;20025;-35
2021/10/03 03:36:36;;;;;;;3.03;0.60;;;;;;;15.10;100.00;99505.09;5033988;28;20252;-35
2021/10/03 03:39:01;;;;;;;2.13;0.60;;;;;;;15.03;100.00;99476.59;5033645;28;20034;-35
2021/10/03 03:41:26;;;;;;;4.03;0.73;;;;;;;14.98;100.00;99503.88;5034182;28;20025;-35
2021/10/03 03:43:52;;;;;;;2.60;0.65;;;;;;;14.92;100.00;99481.38;5034077;28;20031;-35
2021/10/03 03:46:17;;;;;;;0.57;0.30;;;;;;;14.89;100.00;99481.97;5034384;28;20049;-35
2021/10/03 03:48:42;;;;;;;2.42;0.85;;;;;;;14.83;100.00;99486.66;5033986;28;20506;-35
2021/10/03 03:51:08;;;;;;;4.25;0.60;;;;;;;14.79;100.00;99482.91;5033756;28;20029;-36
2021/10/03 03:53:33;;;;;;;3.03;0.77;;;;;;;14.77;100.00;99476.13;5033000;28;20100;-35
2021/10/03 03:55:59;;;;;;;1.10;0.50;;;;;;;14.70;100.00;99492.00;5032586;28;20046;-35
2021/10/03 03:58:25;;;;;;;1.55;0.55;;;;;;;14.72;100.00;99504.22;5033545;28;20092;-35
2021/10/03 04:00:50;;;;;;;3.75;0.70;;;;;;;14.66;100.00;99461.84;5033257;28;20057;-35
2021/10/03 04:03:15;;;;;;;2.55;1.10;;;;;;;14.69;100.00;99493.94;5033268;28;20034;-35
2021/10/03 04:05:42;;;;;;;2.42;0.88;;;;;;;14.65;100.00;99490.97;5033462;28;20026;-36
2021/10/03 04:08:08;;;;;;;1.45;0.60;;;;;;;14.62;100.00;99486.09;5033232;28;20104;-35
2021/10/03 04:10:33;;;;;;;2.03;0.95;;;;;;;14.57;100.00;99472.56;5033254;28;20121;-35
2021/10/03 04:12:58;;;;;;;2.83;0.70;;;;;;;14.61;100.00;99481.75;5033211;28;20054;-35
2021/10/03 04:15:24;;;;;;;1.57;0.67;;;;;;;14.62;100.00;99494.25;5032832;28;20029;-35
2021/10/03 04:17:49;;;;;;;1.27;0.73;;;;;;;14.45;100.00;99480.31;5033620;28;20314;-35
2021/10/03 04:20:14;;;;;;;1.20;0.70;;;;;;;14.56;100.00;99498.16;5032951;28;20037;-35
2021/10/03 04:22:40;;;;;;;1.90;0.93;;;;;;;14.55;100.00;99499.25;5033363;28;20248;-35
2021/10/03 04:25:06;;;;;;;1.33;0.55;;;;;;;14.41;100.00;99484.69;5033378;28;20088;-35
2021/10/03 04:27:31;;;;;;;2.03;0.40;;;;;;;14.32;100.00;99503.56;5033382;28;20025;-35
2021/10/03 04:29:56;;;;;;;1.07;0.40;;;;;;;14.34;100.00;99509.50;5031920;28;20454;-35
2021/10/03 04:32:22;;;;;;;2.20;0.50;;;;;;;14.26;100.00;99493.84;5033301;28;20253;-35
2021/10/03 04:34:47;;;;;;;1.10;0.30;;;;;;;14.26;100.00;99490.31;5032888;28;20321;-35
2021/10/03 04:37:12;;;;;;;0.88;0.35;;;;;;;14.26;100.00;99504.72;5032457;28;20033;-35
2021/10/03 04:39:38;;;;;;;0.87;0.33;;;;;;;14.26;99.99;99498.47;5032666;28;20034;-35
2021/10/03 04:42:04;;;;;;;1.20;0.40;;;;;;;14.22;100.00;99490.06;5036680;28;20767;-35
2021/10/03 04:44:29;;;;;;;3.92;0.50;;;;;;;14.23;99.92;99499.03;5036893;28;20029;-35
2021/10/03 04:46:55;;;;;;;2.35;0.40;;;;;;;14.23;99.99;99507.19;5037034;28;20036;-35
2021/10/03 04:49:21;;;;;;;1.35;0.32;;;;;;;14.18;100.00;99508.84;5037251;28;20464;-35
2021/10/03 04:51:46;;;;;;;2.45;0.50;;;;;;;14.19;99.96;99501.50;5036677;28;20104;-35
2021/10/03 04:54:11;;;;;;;3.65;0.47;;;;;;;14.08;99.74;99498.06;5037343;28;20017;-35
2021/10/03 04:56:37;;;;;;;1.23;0.47;;;;;;;14.10;100.00;99495.06;5036908;28;20108;-36
2021/10/03 04:59:02;;;;;;;2.20;0.30;;;;;;;14.13;99.97;99497.22;5037163;28;20052;-35
2021/10/03 05:01:27;;;;;;;0.83;0.47;;;;;;;14.05;99.78;99481.53;5036306;28;20017;-36
2021/10/03 05:03:53;;;;;;;1.37;0.47;;;;;;;14.04;100.00;99478.00;5036698;28;20283;-35
2021/10/03 05:06:18;;;;;;;1.03;0.40;;;;;;;14.10;100.00;99498.63;5036757;28;20026;-35
2021/10/03 05:08:43;;;;;;;3.33;0.50;;;;;;;14.05;99.74;99495.91;5036392;28;20085;-35
2021/10/03 05:11:09;;;;;;;1.50;0.40;;;;;;;14.12;99.88;99490.16;5036176;28;20304;-35
2021/10/03 05:13:34;;;;;;;0.90;0.40;;;;;;;14.06;99.69;99491.31;5036815;28;20026;-35
2021/10/03 05:16:00;;;;;;;2.03;0.50;;;;;;;14.03;99.75;99516.34;5037080;28;20323;-35
2021/10/03 05:18:25;;;;;;;1.23;0.43;;;;;;;13.95;99.96;99489.78;5036402;28;20029;-35
2021/10/03 05:20:51;;;;;;;1.27;0.35;;;;;;;13.96;100.00;99494.94;5036701;28;20100;-35
2021/10/03 05:23:17;;;;;;;1.17;0.47;;;;;;;13.66;99.35;99457.97;5035850;28;20399;-35
2021/10/03 05:25:43;;;;;;;1.02;0.45;;;;;;;13.79;99.67;99486.41;5036924;28;20046;-36
2021/10/03 05:28:08;;;;;;;1.75;0.55;;;;;;;13.84;99.98;99508.88;5036331;28;20449;-35
2021/10/03 05:30:34;;;;;;;1.45;0.40;;;;;;;13.92;100.00;99512.91;5036003;28;20082;-35
2021/10/03 05:32:59;;;;;;;1.95;0.70;;;;;;;13.89;100.00;99505.31;5035814;28;20026;-35
2021/10/03 05:35:24;;;;;;;1.90;0.50;;;;;;;13.86;100.00;99495.84;5036211;28;20025;-35
2021/10/03 05:37:50;;;;;;;1.95;0.50;;;;;;;13.80;99.92;99485.28;5036434;28;20255;-35
2021/10/03 05:40:16;;;;;;;2.40;0.60;;;;;;;13.82;100.00;99485.84;5036007;28;20025;-35
2021/10/03 05:42:41;;;;;;;3.30;0.52;;;;;;;13.83;100.00;99509.19;5036586;28;20358;-35
2021/10/03 05:45:07;;;;;;;1.58;0.50;;;;;;;13.80;100.00;99498.88;5034789;28;20038;-35
2021/10/03 05:47:33;;;;;;;;;;;;;;;13.88;100.00;99492.84;5036618;28;20025;-35
2021/10/03 05:49:58;;;;;;;4.75;0.73;;;;;;;13.78;100.00;99482.06;5035497;28;20277;-35
2021/10/03 05:52:24;;;;;;;2.30;0.70;;;;;;;13.63;100.00;99469.41;5035057;28;20061;-36
2021/10/03 05:54:49;;;;;;;1.75;0.50;;;;;;;13.76;100.00;99489.66;5036029;28;20260;-35
2021/10/03 05:57:14;;;;;;;1.73;0.70;;;;;;;13.76;100.00;99484.22;5036199;28;20033;-35
2021/10/03 05:59:40;;;;;;;3.47;0.50;;;;;;;13.75;100.00;99472.56;5035852;28;20104;-35
2021/10/03 06:02:05;;;;;;;3.78;0.60;;;;;;;13.76;100.00;99470.66;5034664;28;20414;-35
2021/10/03 06:04:30;;;;;;;1.90;0.60;;;;;;;13.62;100.00;99463.19;5035845;28;20112;-35
2021/10/03 06:06:57;;;;;;;0.80;0.50;;;;;;;13.70;100.00;99469.88;5035984;28;20379;-35
2021/10/03 06:09:23;;;;;;;1.35;0.57;;;;;;;13.60;100.00;99468.06;5035695;28;20024;-36
2021/10/03 06:11:48;;;;;;;3.25;0.73;;;;;;;13.74;100.00;99481.00;5035163;28;20030;-35
2021/10/03 06:14:14;;;;;;;2.78;0.80;;;;;;;13.72;100.00;99472.34;5034858;28;20022;-35
2021/10/03 06:16:42;;;;;;;0.98;0.50;;;;;;;13.62;100.00;99484.91;5035529;28;20029;-35
2021/10/03 06:19:08;;;;;;;4.32;0.80;;;;;;;13.64;100.00;99480.00;5035559;28;20366;-35
2021/10/03 06:21:34;;;;;;;1.52;0.73;;;;;;;13.62;100.00;99478.66;5035097;28;20025;-35
2021/10/03 06:23:59;;;;;;;3.13;0.88;;;;;;;13.60;100.00;99481.66;5034996;28;20045;-35
2021/10/03 06:26:24;;;;;;;0.93;0.60;;;;;;;13.66;100.00;99479.69;5034941;28;20326;-35
2021/10/03 06:28:50;;;;;;;2.05;0.55;;;;;;;13.65;100.00;99489.75;5034859;28;20044;-35
2021/10/03 06:31:15;;;;;;;1.60;0.60;;;;;;;13.58;100.00;99477.59;5035098;28;20029;-35
2021/10/03 06:33:40;;;;;;;1.83;0.53;;;;;;;13.69;100.00;99491.91;5034476;28;20330;-35
2021/10/03 06:36:06;;;;;;;1.70;0.50;;;;;;;13.63;100.00;99494.66;5034819;28;20322;-35
2021/10/03 06:38:31;;;;;;;3.67;0.80;;;;;;;13.72;100.00;99502.22;5034721;28;20369;-35
2021/10/03 06:40:57;;;;;;;3.87;0.80;;;;;;;13.74;100.00;99508.97;5034847;28;20025;-35
2021/10/03 06:43:22;;;;;;;2.63;0.60;;;;;;;13.75;100.00;99512.50;5034591;28;20728;-36
2021/10/03 06:45:48;;;;;;;2.30;0.70;;;;;;;13.77;100.00;99503.00;5034784;28;20108;-35
2021/10/03 06:48:13;;;;;;;1.95;0.60;;;;;;;13.80;100.00;99501.59;5035261;28;20022;-35
2021/10/03 06:50:38;;;;;;;1.70;0.80;;;;;;;13.79;100.00;99508.13;5034473;28;20032;-35
2021/10/03 06:53:04;;;;;;;2.03;0.70;;;;;;;13.74;100.00;99519.03;5034385;28;20018;-35
2021/10/03 06:55:31;;;;;;;1.73;0.70;;;;;;;13.77;100.00;99515.75;5034247;28;20071;-36
2021/10/03 06:57:57;;;;;;;3.03;0.85;;;;;;;13.75;100.00;99529.63;5034574;28;20139;-35
2021/10/03 07:00:22;;;;;;;;;;;;;;;13.86;100.00;99522.22;5034702;28;20021;-35
2021/10/03 07:02:47;;;;;;;1.05;0.63;;;;;;;13.72;100.00;99518.53;5033436;28;19955;-35
2021/10/03 07:05:13;;;;;;;2.93;1.00;;;;;;;13.69;100.00;99516.38;5034483;28;20100;-35
2021/10/03 07:07:38;;;;;;;2.33;0.90;;;;;;;13.73;100.00;99523.66;5034127;28;20041;-35
2021/10/03 07:10:04;;;;;;;2.13;0.95;;;;;;;13.73;100.00;99531.00;5034292;28;20062;-35
2021/10/03 07:12:30;;;;;;;;;;;;;;;13.85;100.00;99526.00;5034639;28;20036;-35
2021/10/03 07:14:55;;;;;;;2.10;0.90;;;;;;;13.77;100.00;99524.72;5034166;28;20257;-35
2021/10/03 07:17:20;;;;;;;1.83;0.93;;;;;;;13.60;100.00;99510.72;5034681;28;20163;-35
2021/10/03 07:19:46;;;;;;;1.80;1.07;;;;;;;13.64;100.00;99520.72;5034904;28;20275;-35
2021/10/03 07:22:12;;;;;;;2.03;1.00;;;;;;;13.65;100.00;99516.13;5034146;28;20298;-35
2021/10/03 07:24:38;;;;;;;3.50;1.00;;;;;;;13.62;100.00;99517.50;5034287;28;20046;-35
2021/10/03 07:27:04;;;;;;;4.38;1.52;;;;;;;13.62;100.00;99527.56;5033788;28;20041;-35
2021/10/03 07:29:30;;;;;;;2.72;1.10;;;;;;;13.54;100.00;99528.97;5033942;28;20053;-35
2021/10/03 07:31:56;;;;;;;1.40;0.93;;;;;;;13.46;100.00;99532.25;5034308;28;20134;-35
2021/10/03 07:34:21;;;;;;;2.20;1.17;;;;;;;13.54;100.00;99544.44;5033779;28;20021;-35
2021/10/03 07:36:46;;;;;;;2.63;1.17;;;;;;;13.61;100.00;99548.44;5033799;28;20252;-35
2021/10/03 07:39:12;;;;;;;1.52;0.90;;;;;;;13.56;100.00;99534.09;5032361;28;20139;-35
2021/10/03 07:41:37;;;;;;;1.77;0.90;;;;;;;13.56;100.00;99548.50;5033940;28;20025;-35
2021/10/03 07:44:03;;;;;;;3.03;1.00;;;;;;;13.57;100.00;99555.56;5033500;28;20287;-35
2021/10/03 07:46:28;;;;;;;2.50;0.70;;;;;;;13.59;100.00;99558.81;5034108;28;20025;-35
2021/10/03 07:48:54;;;;;;;2.35;0.73;;;;;;;13.61;100.00;99564.75;5033613;28;20072;-35
2021/10/03 07:51:19;;;;;;;3.03;0.98;;;;;;;13.64;100.00;99574.25;5033655;28;20413;-35
2021/10/03 07:53:45;;;;;;;1.95;1.00;;;;;;;13.49;100.00;99563.50;5033113;28;20032;-35
2021/10/03 07:56:11;;;;;;;2.10;1.10;;;;;;;13.53;100.00;99581.66;5033471;28;20033;-35
2021/10/03 07:58:36;;;;;;;3.45;0.70;;;;;;;13.40;100.00;99574.13;5033276;28;20026;-35
2021/10/03 08:01:02;;;;;;;1.07;0.50;;;;;;;13.19;98.89;99548.97;5032005;28;20024;-35
2021/10/03 08:03:27;;;;;;;1.85;0.60;;;;;;;13.12;99.06;99557.41;5033200;28;20021;-35
2021/10/03 08:05:53;;;;;;;2.47;0.80;;;;;;;13.09;99.68;99574.25;5032942;28;20074;-35
2021/10/03 08:08:18;;;;;;;3.10;0.73;;;;;;;13.05;99.81;99572.38;5033190;28;20021;-35
2021/10/03 08:10:44;;;;;;;5.17;0.70;;;;;;;13.01;99.51;99571.31;5033022;28;20267;-35
2021/10/03 08:13:12;;;;;;;2.70;0.65;;;;;;;13.01;99.90;99577.53;5033446;28;20032;-35
2021/10/03 08:15:39;;;;;;;3.85;0.90;;;;;;;12.90;100.00;99581.38;5032832;28;20112;-35
2021/10/03 08:18:05;;;;;;;4.25;1.15;;;;;;;12.91;99.75;99588.44;5033341;28;20021;-35
2021/10/03 08:20:30;;;;;;;4.57;0.80;;;;;;;12.87;99.90;99587.34;5032973;28;20067;-35
2021/10/03 08:22:56;;;;;;;2.65;0.70;;;;;;;12.84;100.00;99591.44;5032801;28;20365;-35
2021/10/03 08:25:21;;;;;;;3.38;1.00;;;;;;;12.62;100.00;99564.66;5033518;28;20041;-35
2021/10/03 08:27:47;;;;;;;4.97;1.08;;;;;;;12.87;100.00;99582.75;5033293;28;20361;-35
2021/10/03 08:30:13;;;;;;;2.88;1.00;;;;;;;12.89;100.00;99598.75;5033622;28;20017;-35
2021/10/03 08:32:40;;;;;;;3.55;1.40;;;;;;;12.88;100.00;99618.81;5033810;28;20028;-35
2021/10/03 08:35:05;;;;;;;;;;;;;;;12.99;100.00;99639.44;5033558;28;20025;-35
2021/10/03 08:37:31;;;;;;;3.50;1.20;;;;;;;12.87;99.64;99617.19;5032998;28;20417;-35
2021/10/03 08:39:57;;;;;;;4.10;1.15;;;;;;;12.80;100.00;99581.44;5032943;28;20533;-35
2021/10/03 08:42:22;;;;;;;;;;;;;;;12.84;99.97;99593.34;5034376;28;20030;-35
2021/10/03 08:44:47;;;;;;;2.45;0.93;;;;;;;12.74;100.00;99587.97;5033079;28;20261;-35
2021/10/03 08:47:14;;;;;;;2.42;0.77;;;;;;;12.81;100.00;99604.75;5033528;28;20021;-35
2021/10/03 08:49:39;;;;;;;1.55;0.80;;;;;;;12.84;100.00;99606.91;5049073;28;20029;-35
2021/10/03 08:52:06;;;;;;;2.07;0.97;;;;;;;12.84;100.00;99606.91;5032964;28;20057;-35
2021/10/03 08:54:39;;;;;;;1.77;0.88;;;;;;;12.85;99.96;99609.34;5032862;28;20105;-35
2021/10/03 08:57:05;;;;;;;4.43;0.95;;;;;;;12.82;100.00;99606.38;5032984;28;20032;-36
2021/10/03 08:59:31;;;;;;;2.47;1.13;;;;;;;12.88;100.00;99625.09;5032769;28;20453;-35
2021/10/03 09:01:58;;;;;;;2.58;0.98;;;;;;;12.80;100.00;99611.28;5032795;28;20108;-35
2021/10/03 09:04:39;;;;;;;2.55;1.08;;;;;;;12.93;100.00;99621.50;5032391;28;20034;-35
2021/10/03 09:07:08;;;;;;;2.85;1.00;;;;;;;12.94;100.00;99625.88;5032982;28;20434;-35
2021/10/03 09:09:52;;;;;;;1.38;0.90;;;;;;;12.82;100.00;99633.50;5033104;28;20045;-35
2021/10/03 09:12:41;;;;;;;2.25;0.90;;;;;;;12.79;99.58;99625.94;5033426;28;20128;-35
2021/10/03 09:15:16;;;;;;;2.90;0.90;;;;;;;12.78;99.90;99646.78;5032532;28;20428;-35
2021/10/03 09:17:41;;;;;;;1.92;1.00;;;;;;;12.69;99.45;99637.59;5033350;28;20017;-35
2021/10/03 09:20:26;;;;;;;2.50;0.90;;;;;;;12.77;99.55;99641.66;5032747;28;20104;-35
2021/10/03 09:22:54;;;;;;;3.10;0.98;;;;;;;12.76;99.86;99642.75;5032542;28;20100;-35
2021/10/03 09:25:33;;;;;;;1.35;0.90;;;;;;;12.74;99.79;99648.44;5032963;28;20384;-35
2021/10/03 09:28:00;;;;;;;3.05;1.15;;;;;;;12.71;99.40;99650.88;5035705;28;20061;-35
2021/10/03 09:30:26;;;;;;;1.70;0.80;;;;;;;12.71;99.16;99635.41;5036712;28;20025;-35
2021/10/03 09:32:56;;;;;;;3.33;1.42;;;;;;;12.83;99.37;99651.38;5036678;28;20037;-35
2021/10/03 09:35:33;;;;;;;2.80;1.02;;;;;;;12.77;99.42;99630.78;5035810;28;20018;-35
2021/10/03 09:38:09;;;;;;;2.80;1.10;;;;;;;12.83;99.50;99648.69;5035799;28;20462;-35
2021/10/03 09:40:35;;;;;;;1.83;0.90;;;;;;;12.84;98.94;99644.91;5035596;28;20021;-36
2021/10/03 09:43:03;;;;;;;2.78;1.40;;;;;;;12.95;100.00;99649.22;5035506;28;20029;-35
2021/10/03 09:45:30;;;;;;;1.85;0.85;;;;;;;12.87;98.83;99647.84;5035908;28;20111;-35
2021/10/03 09:48:07;;;;;;;1.45;0.85;;;;;;;12.78;98.13;99637.84;5035890;28;20029;-35
2021/10/03 09:50:34;;;;;;;1.63;0.90;;;;;;;13.00;97.77;99651.09;5035398;28;20116;-35
2021/10/03 09:53:00;;;;;;;1.25;0.80;;;;;;;12.92;97.16;99662.50;5036015;28;20013;-35
2021/10/03 09:55:27;;;;;;;1.65;0.80;;;;;;;13.04;97.33;99657.59;5035579;28;20044;-35
2021/10/03 09:57:54;;;;;;;0.70;0.70;;;;;;;13.01;97.42;99642.66;5036069;28;20113;-35
2021/10/03 10:00:24;;;;;;;1.27;0.75;;;;;;;13.08;97.61;99654.06;5035793;28;20076;-35
2021/10/03 10:02:50;;;;;;;3.13;1.00;;;;;;;13.17;98.18;99657.00;5035500;28;20063;-35
2021/10/03 10:05:18;;;;;;;1.17;0.77;;;;;;;13.15;96.77;99665.44;5035449;28;20052;-36
2021/10/03 10:07:44;;;;;;;1.17;0.60;;;;;;;13.08;96.85;99667.63;5035901;28;20031;-35
2021/10/03 10:10:10;;;;;;;1.00;0.80;;;;;;;13.20;97.49;99677.34;5035066;28;20017;-35
2021/10/03 10:12:57;;;;;;;1.27;0.80;;;;;;;13.30;98.08;99690.94;5035886;28;20139;-35
2021/10/03 10:15:24;;;;;;;1.33;0.82;;;;;;;13.18;97.65;99685.78;5035116;28;20056;-36
2021/10/03 10:17:50;;;;;;;2.15;1.10;;;;;;;13.41;97.44;99673.50;5035923;28;20029;-35
2021/10/03 10:20:22;;;;;;;1.15;0.93;;;;;;;13.38;97.08;99684.94;5035261;28;20037;-35
2021/10/03 10:23:08;;;;;;;1.20;1.08;;;;;;;13.46;97.50;99707.97;5035981;28;20033;-36
2021/10/03 10:25:38;;;;;;;1.60;1.20;;;;;;;13.42;97.51;99707.72;5036232;28;20334;-35
2021/10/03 10:28:07;;;;;;;1.65;1.20;;;;;;;13.52;97.48;99696.81;5034967;28;20380;-35
2021/10/03 10:30:34;;;;;;;1.50;1.30;;;;;;;13.52;97.12;99696.81;5035360;28;20024;-35
2021/10/03 10:33:04;;;;;;;1.60;1.50;;;;;;;13.50;96.34;99704.41;5035037;28;20029;-35
2021/10/03 10:35:31;;;;;;;1.50;1.40;;;;;;;13.58;96.06;99705.75;5035507;28;20108;-35
2021/10/03 10:37:56;;;;;;;1.77;1.30;;;;;;;13.53;95.79;99697.63;5035205;28;20052;-35
2021/10/03 10:40:22;;;;;;;1.60;1.50;;;;;;;13.61;95.88;99691.59;5034959;28;20056;-35
2021/10/03 10:43:19;;;;;;;2.10;1.90;;;;;;;13.68;96.20;99708.44;5035433;28;20030;-35
2021/10/03 10:45:46;;;;;;;2.45;1.65;;;;;;;13.36;95.36;99685.19;5034827;28;20271;-35
2021/10/03 10:48:12;;;;;;;5.20;2.55;;;;;;;13.49;96.03;99700.09;5035503;28;20025;-35
2021/10/03 10:50:49;;;;;;;2.37;1.77;;;;;;;13.53;96.49;99711.22;5034690;28;20028;-35
2021/10/03 10:53:17;;;;;;;2.33;1.55;;;;;;;13.43;96.62;99697.69;5035170;28;20434;-35
2021/10/03 10:56:04;;;;;;;2.25;2.05;;;;;;;13.38;96.32;99682.22;5034834;28;20454;-35
2021/10/03 10:58:31;;;;;;;;;;;;;;;13.57;95.74;99696.00;5043055;28;20044;-35
2021/10/03 11:01:15;;;;;;;2.63;1.50;;;;;;;13.44;95.46;99707.44;5053902;28;19908;-35
2021/10/03 11:03:43;;;;;;;2.00;1.80;;;;;;;13.38;96.09;99712.09;5052676;28;20120;-35
2021/10/03 11:06:11;;;;;;;2.53;2.00;;;;;;;13.40;96.64;99726.19;5054445;28;20024;-35
2021/10/03 11:09:01;;;;;;;2.47;1.83;;;;;;;13.49;96.41;99721.81;5054430;28;20029;-35
2021/10/03 11:11:32;;;;;;;3.35;1.90;;;;;;;13.41;96.68;99697.94;5054505;28;20028;-35
2021/10/03 11:14:00;;;;;;;2.30;2.10;;;;;;;13.45;96.78;99711.78;5054392;28;20025;-35
2021/10/03 11:16:31;;;;;;;3.13;2.33;;;;;;;13.39;96.53;99709.09;5054575;28;20351;-35
2021/10/03 11:19:31;;;;;;;3.45;2.47;;;;;;;13.39;96.86;99711.81;5054066;28;20021;-35
2021/10/03 11:21:59;;;;;;;2.67;2.30;;;;;;;13.37;97.30;99695.00;5053591;28;20098;-35
2021/10/03 11:24:31;;;;;;;2.45;2.10;;;;;;;13.50;97.07;99719.91;5053884;28;20045;-35
2021/10/03 11:26:57;;;;;;;2.63;2.42;;;;;;;13.46;97.44;99725.06;5054586;28;20037;-35
2021/10/03 11:29:26;;;;;;;3.03;2.60;;;;;;;13.49;98.07;99707.44;5054364;28;20183;-35
2021/10/03 11:32:04;;;;;;;2.92;2.63;;;;;;;13.56;97.92;99724.22;5053832;28;20028;-35